Time;durP1;ratioP1;P1;durP2;ratioP2;P2;SDS_P1;SDS_P2;PMS_P1;PMS_P2;Temp;Humidity;BMP_temperature;BMP_pressure;BME280_temperature;BME280_humidity;BME280_pressure;Samples;Min_cycle;Max_cycle;Signal;HPM_P1;HPM_P2
2022/12/17 13:08:04;;;;;;;45.60;28.90;;;;;;;;;;5001529;28;20033;-73
2022/12/17 13:10:31;;;;;;;47.45;28.75;;;;;;;;;;4991121;28;21003;-73
2022/12/17 13:12:59;;;;;;;42.92;26.05;;;;;;;;;;4996602;28;20030;-73
2022/12/17 13:15:35;;;;;;;56.92;32.35;;;;;;;;;;4995862;28;20049;-72
2022/12/17 13:18:19;;;;;;;54.40;33.28;;;;;;;;;;4997898;28;20022;-72
2022/12/17 13:20:55;;;;;;;49.03;29.70;;;;;;;;;;4998255;28;20758;-73
2022/12/17 13:23:29;;;;;;;63.58;37.17;;;;;;;;;;4996456;28;20088;-72
2022/12/17 13:26:14;;;;;;;59.85;34.88;;;;;;;;;;4993919;28;20120;-72
2022/12/17 13:28:41;;;;;;;46.60;30.67;;;;;;;;;;5001304;28;20068;-72
2022/12/17 13:31:15;;;;;;;51.00;29.58;;;;;;;;;;4996042;28;20050;-72
2022/12/17 13:33:41;;;;;;;53.45;31.20;;;;;;;;;;5002719;28;20393;-72
2022/12/17 13:36:13;;;;;;;55.75;31.70;;;;;;;;;;4999963;28;20034;-73
2022/12/17 13:38:45;;;;;;;41.10;25.35;;;;;;;;;;4999583;28;20057;-72
2022/12/17 13:41:15;;;;;;;49.67;28.98;;;;;;;;;;4995319;28;20045;-72
2022/12/17 13:43:57;;;;;;;41.15;25.45;;;;;;;;;;4992604;28;20371;-73
2022/12/17 13:46:24;;;;;;;47.97;27.52;;;;;;;;;;4999893;28;20600;-73
2022/12/17 13:49:00;;;;;;;43.95;28.77;;;;;;;;;;5002912;28;20041;-73
2022/12/17 13:51:28;;;;;;;41.05;24.52;;;;;;;;;;5003495;28;20042;-73
2022/12/17 13:53:55;;;;;;;56.63;31.30;;;;;;;;;;5007472;28;20037;-72
2022/12/17 13:56:21;;;;;;;46.63;29.55;;;;;;;;;;5002095;28;20113;-73
2022/12/17 13:58:50;;;;;;;48.67;30.55;;;;;;;;;;5000494;28;20039;-73
2022/12/17 14:01:16;;;;;;;60.30;32.92;;;;;;;;;;4999792;28;20040;-72
2022/12/17 14:03:53;;;;;;;53.95;32.15;;;;;;;;;;4990338;28;20385;-73
2022/12/17 14:06:20;;;;;;;55.15;31.42;;;;;;;;;;4999487;28;20037;-72
2022/12/17 14:08:47;;;;;;;55.63;32.63;;;;;;;;;;5003044;28;20125;-72
2022/12/17 14:13:58;;;;;;;42.05;26.73;;;;;;;;;;5004546;28;20164;-73
2022/12/17 14:16:24;;;;;;;45.78;29.15;;;;;;;;;;4996382;28;20462;-72
2022/12/17 14:18:51;;;;;;;42.13;25.23;;;;;;;;;;5002283;28;20053;-72
2022/12/17 14:21:18;;;;;;;45.08;26.95;;;;;;;;;;4999835;28;20061;-73
2022/12/17 14:23:44;;;;;;;43.10;26.98;;;;;;;;;;5000342;28;20449;-73
2022/12/17 14:26:11;;;;;;;41.75;24.40;;;;;;;;;;5003431;28;20029;-72
2022/12/17 14:28:45;;;;;;;45.78;27.73;;;;;;;;;;5004425;28;20061;-72
2022/12/17 14:31:14;;;;;;;46.55;29.65;;;;;;;;;;5003167;28;20057;-72
2022/12/17 14:33:41;;;;;;;38.67;25.13;;;;;;;;;;5004180;28;20034;-72
2022/12/17 14:36:17;;;;;;;40.13;24.85;;;;;;;;;;5005677;28;20052;-73
2022/12/17 14:38:51;;;;;;;39.42;24.08;;;;;;;;;;4997914;28;20109;-73
2022/12/17 14:44:02;;;;;;;41.25;25.83;;;;;;;;;;5004913;28;20077;-73
2022/12/17 14:46:29;;;;;;;40.28;24.67;;;;;;;;;;5000249;28;20034;-73
2022/12/17 14:48:59;;;;;;;39.28;24.85;;;;;;;;;;5001191;28;20404;-73
2022/12/17 14:51:33;;;;;;;39.65;23.63;;;;;;;;;;5004390;28;20041;-72
2022/12/17 14:54:14;;;;;;;40.85;24.77;;;;;;;;;;4999074;28;20076;-72
2022/12/17 14:56:41;;;;;;;42.20;25.92;;;;;;;;;;5005261;28;20044;-73
2022/12/17 14:59:30;;;;;;;41.40;25.70;;;;;;;;;;4998094;28;20058;-73
2022/12/17 15:01:56;;;;;;;40.08;25.33;;;;;;;;;;5003062;28;20060;-72
2022/12/17 15:04:22;;;;;;;40.17;22.88;;;;;;;;;;4994559;28;20031;-73
2022/12/17 15:06:49;;;;;;;39.72;24.70;;;;;;;;;;4994078;28;20385;-72
2022/12/17 15:09:15;;;;;;;39.05;24.90;;;;;;;;;;5001774;28;20034;-73
2022/12/17 15:11:41;;;;;;;44.30;27.17;;;;;;;;;;5004492;28;20034;-73
2022/12/17 15:14:07;;;;;;;39.22;24.52;;;;;;;;;;5002301;28;20079;-72
2022/12/17 15:16:33;;;;;;;39.65;24.50;;;;;;;;;;5006326;28;20029;-73
2022/12/17 15:19:00;;;;;;;37.40;23.13;;;;;;;;;;5000902;28;20064;-73
2022/12/17 15:21:26;;;;;;;36.60;23.10;;;;;;;;;;5005726;28;20038;-73
2022/12/17 15:23:52;;;;;;;37.75;22.67;;;;;;;;;;4996064;28;20073;-73
2022/12/17 15:26:20;;;;;;;39.10;24.98;;;;;;;;;;5005114;28;20037;-73
2022/12/17 15:28:46;;;;;;;37.30;22.88;;;;;;;;;;5003006;28;20824;-73
2022/12/17 15:31:13;;;;;;;40.92;26.60;;;;;;;;;;4997642;28;20085;-73
2022/12/17 15:33:39;;;;;;;45.00;24.98;;;;;;;;;;5000980;28;20061;-73
2022/12/17 15:36:05;;;;;;;39.67;25.23;;;;;;;;;;5004411;28;20029;-73
2022/12/17 15:38:31;;;;;;;37.95;25.13;;;;;;;;;;5001809;28;20038;-73
2022/12/17 15:43:09;;;;;;;41.88;25.30;;;;;;;;;;5003653;28;20030;-73
2022/12/17 15:43:47;;;;;;;38.10;23.98;;;;;;;;;;5004719;28;20050;-72
2022/12/17 15:46:13;;;;;;;43.40;25.05;;;;;;;;;;5003460;28;20477;-72
2022/12/17 15:48:39;;;;;;;41.22;26.88;;;;;;;;;;4998497;28;20080;-73
2022/12/17 15:51:05;;;;;;;40.50;25.02;;;;;;;;;;4996392;28;20034;-73
2022/12/17 15:53:31;;;;;;;39.22;24.13;;;;;;;;;;5001676;28;20105;-73
2022/12/17 15:56:03;;;;;;;42.78;24.92;;;;;;;;;;4998843;28;20636;-72
2022/12/17 15:58:30;;;;;;;39.38;22.80;;;;;;;;;;4998569;28;20110;-73
2022/12/17 16:00:56;;;;;;;37.05;23.00;;;;;;;;;;4998766;28;20524;-73
2022/12/17 16:03:22;;;;;;;40.83;25.75;;;;;;;;;;4998018;28;20190;-72
2022/12/17 16:05:48;;;;;;;39.00;23.73;;;;;;;;;;4998176;28;20061;-72
2022/12/17 16:08:15;;;;;;;39.80;23.58;;;;;;;;;;5004414;28;20030;-72
2022/12/17 16:10:41;;;;;;;39.22;23.35;;;;;;;;;;5003777;28;20038;-74
2022/12/17 16:13:07;;;;;;;39.45;25.38;;;;;;;;;;4998636;28;20026;-72
2022/12/17 16:15:33;;;;;;;36.42;22.90;;;;;;;;;;4994237;28;20034;-73
2022/12/17 16:17:59;;;;;;;39.90;25.13;;;;;;;;;;5005725;28;20037;-72
2022/12/17 16:20:25;;;;;;;42.65;26.92;;;;;;;;;;4997251;28;20073;-73
2022/12/17 16:22:51;;;;;;;44.38;26.42;;;;;;;;;;5000864;28;20532;-72
2022/12/17 16:25:17;;;;;;;42.17;25.23;;;;;;;;;;5002349;28;20038;-72
2022/12/17 16:27:43;;;;;;;43.45;26.60;;;;;;;;;;4999054;28;20056;-72
2022/12/17 16:30:10;;;;;;;42.05;25.42;;;;;;;;;;4996339;28;20135;-73
2022/12/17 16:32:36;;;;;;;37.47;23.77;;;;;;;;;;5002685;28;20539;-73
2022/12/17 16:35:03;;;;;;;42.25;26.70;;;;;;;;;;4997132;28;20112;-72
2022/12/17 16:37:29;;;;;;;50.53;30.35;;;;;;;;;;4997687;28;20875;-73
2022/12/17 16:39:55;;;;;;;47.58;31.13;;;;;;;;;;5001495;28;20042;-73
2022/12/17 16:42:21;;;;;;;48.90;29.92;;;;;;;;;;4998050;28;20076;-73
2022/12/17 16:44:47;;;;;;;50.85;29.80;;;;;;;;;;5003187;28;20421;-72
2022/12/17 16:47:13;;;;;;;52.13;32.75;;;;;;;;;;5003211;28;20065;-73
2022/12/17 16:49:39;;;;;;;46.72;29.13;;;;;;;;;;4999726;28;20433;-72
2022/12/17 16:52:05;;;;;;;53.33;30.08;;;;;;;;;;4998611;28;20030;-72
2022/12/17 16:54:32;;;;;;;50.70;32.10;;;;;;;;;;4996587;28;20042;-72
2022/12/17 16:57:01;;;;;;;56.30;34.00;;;;;;;;;;4997733;28;20027;-73
2022/12/17 16:59:27;;;;;;;51.67;32.90;;;;;;;;;;4999457;28;20034;-72
2022/12/17 17:01:55;;;;;;;47.63;30.23;;;;;;;;;;5001046;28;20041;-73
2022/12/17 17:04:22;;;;;;;58.95;34.53;;;;;;;;;;5001381;28;20034;-73
2022/12/17 17:06:49;;;;;;;50.13;30.48;;;;;;;;;;4999408;28;20577;-73
2022/12/17 17:09:16;;;;;;;52.67;32.67;;;;;;;;;;5004162;28;20068;-72
2022/12/17 17:11:42;;;;;;;56.92;35.42;;;;;;;;;;4998663;28;20307;-73
2022/12/17 17:14:08;;;;;;;49.50;30.10;;;;;;;;;;5002715;28;20372;-73
2022/12/17 17:16:34;;;;;;;48.58;29.50;;;;;;;;;;4997975;28;20037;-73
2022/12/17 17:19:00;;;;;;;49.45;29.48;;;;;;;;;;4996555;28;20382;-73
2022/12/17 17:21:34;;;;;;;42.47;26.55;;;;;;;;;;5003379;28;20068;-73
2022/12/17 17:24:00;;;;;;;42.85;27.42;;;;;;;;;;5000335;28;20053;-73
2022/12/17 17:26:27;;;;;;;39.40;24.52;;;;;;;;;;5003081;28;20033;-72
2022/12/17 17:28:53;;;;;;;39.58;24.17;;;;;;;;;;4999763;28;20039;-73
2022/12/17 17:31:19;;;;;;;40.78;24.70;;;;;;;;;;4997075;28;20089;-73
2022/12/17 17:33:47;;;;;;;37.17;23.30;;;;;;;;;;5001629;28;20433;-72
2022/12/17 17:36:18;;;;;;;42.00;25.67;;;;;;;;;;5003279;28;20101;-73
2022/12/17 17:38:44;;;;;;;44.38;26.85;;;;;;;;;;5002881;28;20046;-73
2022/12/17 17:41:12;;;;;;;41.00;25.20;;;;;;;;;;5005454;28;20076;-73
2022/12/17 17:43:38;;;;;;;41.13;25.17;;;;;;;;;;4999540;28;20040;-73
2022/12/17 17:46:09;;;;;;;42.83;26.88;;;;;;;;;;5006719;28;20113;-73
2022/12/17 17:48:35;;;;;;;39.42;24.17;;;;;;;;;;5003590;28;20030;-73
2022/12/17 17:51:02;;;;;;;40.60;25.92;;;;;;;;;;5004704;28;20034;-73
2022/12/17 17:53:28;;;;;;;39.78;27.52;;;;;;;;;;5002304;28;20049;-73
2022/12/17 17:55:54;;;;;;;46.47;27.42;;;;;;;;;;5007227;28;20354;-72
2022/12/17 17:58:20;;;;;;;45.05;27.05;;;;;;;;;;5003142;28;20409;-73
2022/12/17 18:00:46;;;;;;;42.42;27.00;;;;;;;;;;5001802;28;20515;-73
2022/12/17 18:03:13;;;;;;;45.33;25.92;;;;;;;;;;4998660;28;20081;-73
2022/12/17 18:05:41;;;;;;;43.15;25.42;;;;;;;;;;5003610;28;20553;-73
2022/12/17 18:08:07;;;;;;;43.22;26.90;;;;;;;;;;5002489;28;20113;-72
2022/12/17 18:10:33;;;;;;;44.50;27.83;;;;;;;;;;5006526;28;20033;-73
2022/12/17 18:15:43;;;;;;;43.40;25.77;;;;;;;;;;4999163;28;20053;-73
2022/12/17 18:18:09;;;;;;;41.97;25.80;;;;;;;;;;5002812;28;20037;-73
2022/12/17 18:20:35;;;;;;;40.97;25.10;;;;;;;;;;5001604;28;20165;-73
2022/12/17 18:23:01;;;;;;;39.10;24.23;;;;;;;;;;5001861;28;20126;-73
2022/12/17 18:25:27;;;;;;;41.60;24.83;;;;;;;;;;5001198;28;20037;-72
2022/12/17 18:27:54;;;;;;;44.25;27.00;;;;;;;;;;5001472;28;20073;-73
2022/12/17 18:30:20;;;;;;;43.95;26.63;;;;;;;;;;5001918;28;20148;-72
2022/12/17 18:32:46;;;;;;;44.65;26.90;;;;;;;;;;5000984;28;20155;-73
2022/12/17 18:35:12;;;;;;;41.90;26.73;;;;;;;;;;4997962;28;20034;-73
2022/12/17 18:37:38;;;;;;;39.05;24.33;;;;;;;;;;5002181;28;20026;-73
2022/12/17 18:40:04;;;;;;;42.22;27.38;;;;;;;;;;4997631;28;20405;-73
2022/12/17 18:45:15;;;;;;;42.80;25.92;;;;;;;;;;5001279;28;20073;-74
2022/12/17 18:47:43;;;;;;;44.95;26.75;;;;;;;;;;5003690;28;20068;-73
2022/12/17 18:50:09;;;;;;;44.85;27.33;;;;;;;;;;5005832;28;20030;-73
2022/12/17 18:52:35;;;;;;;40.58;25.38;;;;;;;;;;5003958;28;20035;-73
2022/12/17 18:55:01;;;;;;;49.97;31.00;;;;;;;;;;4998828;28;20040;-73
2022/12/17 18:57:27;;;;;;;50.20;29.33;;;;;;;;;;5005507;28;20541;-73
2022/12/17 18:59:53;;;;;;;50.78;31.52;;;;;;;;;;4999423;28;20045;-73
2022/12/17 19:02:19;;;;;;;42.42;26.25;;;;;;;;;;4999795;28;20116;-73
2022/12/17 19:04:45;;;;;;;47.05;26.42;;;;;;;;;;5004036;28;20053;-73
2022/12/17 19:07:11;;;;;;;52.03;32.08;;;;;;;;;;5001209;28;20030;-72
2022/12/17 19:09:39;;;;;;;51.80;31.90;;;;;;;;;;5001781;28;20057;-73
2022/12/17 19:12:06;;;;;;;53.90;32.92;;;;;;;;;;4999698;28;20473;-72
2022/12/17 19:14:32;;;;;;;63.85;37.17;;;;;;;;;;5001078;28;20030;-73
2022/12/17 19:16:58;;;;;;;55.95;36.08;;;;;;;;;;4994692;28;20027;-72
2022/12/17 19:19:24;;;;;;;55.30;33.75;;;;;;;;;;5001010;28;20030;-72
2022/12/17 19:21:52;;;;;;;53.63;33.58;;;;;;;;;;5001222;28;20045;-72
2022/12/17 19:24:19;;;;;;;55.72;32.50;;;;;;;;;;4998670;28;20171;-73
2022/12/17 19:26:46;;;;;;;53.90;30.98;;;;;;;;;;5002406;28;20139;-72
2022/12/17 19:29:12;;;;;;;51.00;31.77;;;;;;;;;;5004021;28;20069;-72
2022/12/17 19:31:39;;;;;;;48.80;29.67;;;;;;;;;;4998899;28;20029;-72
2022/12/17 19:34:06;;;;;;;49.92;31.65;;;;;;;;;;5006154;28;20140;-73
2022/12/17 19:36:33;;;;;;;53.58;32.15;;;;;;;;;;5002263;28;20061;-72
2022/12/17 19:39:00;;;;;;;53.45;33.20;;;;;;;;;;5002338;28;20034;-73
2022/12/17 19:41:26;;;;;;;57.55;31.90;;;;;;;;;;4998062;28;20053;-73
2022/12/17 19:43:54;;;;;;;56.17;33.58;;;;;;;;;;5001833;28;20092;-73
2022/12/17 19:46:20;;;;;;;49.28;30.50;;;;;;;;;;5000425;28;20061;-72
2022/12/17 19:48:46;;;;;;;50.38;30.95;;;;;;;;;;5003932;28;20073;-73
2022/12/17 19:51:13;;;;;;;47.22;29.02;;;;;;;;;;5002256;28;20037;-73
2022/12/17 19:53:40;;;;;;;54.88;30.63;;;;;;;;;;5001798;28;20105;-72
2022/12/17 19:56:15;;;;;;;57.35;34.55;;;;;;;;;;5002972;28;20433;-72
2022/12/17 19:58:42;;;;;;;53.78;32.13;;;;;;;;;;4999683;28;20038;-73
2022/12/17 20:01:09;;;;;;;55.42;32.38;;;;;;;;;;4999689;28;20067;-73
2022/12/17 20:03:36;;;;;;;58.50;32.65;;;;;;;;;;5000861;28;20054;-72
2022/12/17 20:06:02;;;;;;;55.15;33.75;;;;;;;;;;5000869;28;20033;-72
2022/12/17 20:08:29;;;;;;;53.40;32.20;;;;;;;;;;5002249;28;20034;-73
2022/12/17 20:10:55;;;;;;;58.47;32.22;;;;;;;;;;4994539;28;20045;-73
2022/12/17 20:13:21;;;;;;;63.35;37.75;;;;;;;;;;4994251;28;20042;-72
2022/12/17 20:15:47;;;;;;;68.18;39.72;;;;;;;;;;5004127;28;20455;-72
2022/12/17 20:18:13;;;;;;;65.18;37.58;;;;;;;;;;5002084;28;20026;-72
2022/12/17 20:20:39;;;;;;;81.97;44.42;;;;;;;;;;5002392;28;20026;-72
2022/12/17 20:23:05;;;;;;;72.55;40.47;;;;;;;;;;4994107;28;20133;-72
2022/12/17 20:25:31;;;;;;;56.83;32.88;;;;;;;;;;4999716;28;20034;-72
2022/12/17 20:27:57;;;;;;;54.80;32.28;;;;;;;;;;5003051;28;20076;-73
2022/12/17 20:30:23;;;;;;;55.20;31.50;;;;;;;;;;5004460;28;20050;-72
2022/12/17 20:32:53;;;;;;;88.78;49.22;;;;;;;;;;4998979;28;20036;-72
2022/12/17 20:35:20;;;;;;;64.85;38.90;;;;;;;;;;4998499;28;20042;-72
2022/12/17 20:37:46;;;;;;;59.83;35.83;;;;;;;;;;4996990;28;20488;-72
2022/12/17 20:40:12;;;;;;;61.60;37.33;;;;;;;;;;5003038;28;20029;-73
2022/12/17 20:42:38;;;;;;;61.72;38.95;;;;;;;;;;4996732;28;20040;-72
2022/12/17 20:45:04;;;;;;;64.35;39.10;;;;;;;;;;5001505;28;20798;-72
2022/12/17 20:47:30;;;;;;;62.33;38.65;;;;;;;;;;4999377;28;20820;-73
2022/12/17 20:49:56;;;;;;;58.08;35.88;;;;;;;;;;5003974;28;20038;-72
2022/12/17 20:52:22;;;;;;;59.38;36.25;;;;;;;;;;5000838;28;20034;-72
2022/12/17 20:54:48;;;;;;;52.33;33.85;;;;;;;;;;5002050;28;20054;-73
2022/12/17 20:57:14;;;;;;;47.35;28.80;;;;;;;;;;4998721;28;20030;-72
2022/12/17 20:59:40;;;;;;;49.63;29.13;;;;;;;;;;4997457;28;20072;-73
2022/12/17 21:02:06;;;;;;;46.47;27.20;;;;;;;;;;4999273;28;20053;-73
2022/12/17 21:04:33;;;;;;;47.72;28.92;;;;;;;;;;5000188;28;20140;-73
2022/12/17 21:06:59;;;;;;;45.47;28.02;;;;;;;;;;5000300;28;20030;-73
2022/12/17 21:09:25;;;;;;;45.22;27.65;;;;;;;;;;4998060;28;20038;-73
2022/12/17 21:11:51;;;;;;;45.25;27.10;;;;;;;;;;4998606;28;20814;-73
2022/12/17 21:14:17;;;;;;;50.90;31.30;;;;;;;;;;5000719;28;20038;-73
2022/12/17 21:16:43;;;;;;;44.38;27.15;;;;;;;;;;4998248;28;20531;-72
2022/12/17 21:19:12;;;;;;;49.30;28.80;;;;;;;;;;4998299;28;20034;-73
2022/12/17 21:21:38;;;;;;;45.90;28.02;;;;;;;;;;4997305;28;20029;-72
2022/12/17 21:24:05;;;;;;;50.28;27.60;;;;;;;;;;4996233;28;20408;-73
2022/12/17 21:26:35;;;;;;;44.85;27.85;;;;;;;;;;4997422;28;20037;-72
2022/12/17 21:29:03;;;;;;;47.72;30.05;;;;;;;;;;5000438;28;20092;-73
2022/12/17 21:31:31;;;;;;;53.90;32.17;;;;;;;;;;5003347;28;20080;-73
2022/12/17 21:33:59;;;;;;;53.42;32.65;;;;;;;;;;5003308;28;20385;-73
2022/12/17 21:36:25;;;;;;;52.78;30.33;;;;;;;;;;5000195;28;20030;-73
2022/12/17 21:38:51;;;;;;;51.92;31.52;;;;;;;;;;5002812;28;20482;-73
2022/12/17 21:41:18;;;;;;;54.33;31.83;;;;;;;;;;4998641;28;20030;-73
2022/12/17 21:43:45;;;;;;;54.28;30.30;;;;;;;;;;5003006;28;20157;-73
2022/12/17 21:46:11;;;;;;;56.08;34.17;;;;;;;;;;5000672;28;20041;-72
2022/12/17 21:48:39;;;;;;;56.15;31.90;;;;;;;;;;4999010;28;20080;-72
2022/12/17 21:51:05;;;;;;;62.05;33.05;;;;;;;;;;4994228;28;20030;-73
2022/12/17 21:53:32;;;;;;;65.28;36.30;;;;;;;;;;5002980;28;20084;-72
2022/12/17 21:56:17;;;;;;;61.72;33.75;;;;;;;;;;5001495;28;20030;-73
2022/12/17 21:58:43;;;;;;;61.03;33.50;;;;;;;;;;4992761;28;20035;-73
2022/12/17 22:01:15;;;;;;;62.75;35.75;;;;;;;;;;4999773;28;20041;-72
2022/12/17 22:03:41;;;;;;;59.42;33.28;;;;;;;;;;5000503;28;20107;-72
2022/12/17 22:06:09;;;;;;;58.25;33.17;;;;;;;;;;5000125;28;20073;-73
2022/12/17 22:08:36;;;;;;;59.67;34.45;;;;;;;;;;5003050;28;20049;-72
2022/12/17 22:11:02;;;;;;;55.03;33.97;;;;;;;;;;5003681;28;20034;-73
2022/12/17 22:16:13;;;;;;;53.13;30.92;;;;;;;;;;5004038;28;20125;-72
2022/12/17 22:18:39;;;;;;;47.25;28.35;;;;;;;;;;4996933;28;20469;-72
2022/12/17 22:21:05;;;;;;;46.97;27.30;;;;;;;;;;4998214;28;20034;-72
2022/12/17 22:23:31;;;;;;;49.35;28.25;;;;;;;;;;4998309;28;20038;-72
2022/12/17 22:25:57;;;;;;;45.63;27.75;;;;;;;;;;5003062;28;20057;-72
2022/12/17 22:28:23;;;;;;;49.97;31.33;;;;;;;;;;5001303;28;20470;-72
2022/12/17 22:33:34;;;;;;;51.38;30.17;;;;;;;;;;5007817;28;20080;-73
2022/12/17 22:36:03;;;;;;;72.05;47.72;;;;;;;;;;5003130;28;20030;-72
2022/12/17 22:38:29;;;;;;;55.03;35.28;;;;;;;;;;5000179;28;20041;-73
2022/12/17 22:41:02;;;;;;;52.13;35.50;;;;;;;;;;4996299;28;21723;-72
2022/12/17 22:43:28;;;;;;;42.22;24.20;;;;;;;;;;5003552;28;20515;-73
2022/12/17 22:45:58;;;;;;;36.47;21.00;;;;;;;;;;4996567;28;20066;-72
2022/12/17 22:48:24;;;;;;;33.88;20.85;;;;;;;;;;4999368;28;20121;-72
2022/12/17 22:50:50;;;;;;;38.42;20.42;;;;;;;;;;5005329;28;20108;-72
2022/12/17 22:53:16;;;;;;;31.08;18.85;;;;;;;;;;5002429;28;20046;-72
2022/12/17 22:55:42;;;;;;;30.80;18.42;;;;;;;;;;5001589;28;20032;-73
2022/12/17 22:58:08;;;;;;;32.70;19.45;;;;;;;;;;4997957;28;20149;-73
2022/12/17 23:00:35;;;;;;;33.92;19.30;;;;;;;;;;5000156;28;20030;-72
2022/12/17 23:03:01;;;;;;;35.83;19.38;;;;;;;;;;5003751;28;20045;-72
2022/12/17 23:05:27;;;;;;;35.92;21.02;;;;;;;;;;5002548;28;20112;-72
2022/12/17 23:07:54;;;;;;;30.80;18.05;;;;;;;;;;4998814;28;20030;-73
2022/12/17 23:10:21;;;;;;;31.85;17.58;;;;;;;;;;4991320;28;20042;-73
2022/12/17 23:12:50;;;;;;;30.40;17.55;;;;;;;;;;4999733;28;20534;-73
2022/12/17 23:15:24;;;;;;;33.38;20.20;;;;;;;;;;5008547;28;20038;-72
2022/12/17 23:17:51;;;;;;;37.92;19.13;;;;;;;;;;4996914;28;20037;-73
2022/12/17 23:20:17;;;;;;;34.78;19.90;;;;;;;;;;5008815;28;20065;-73
2022/12/17 23:22:43;;;;;;;37.92;21.05;;;;;;;;;;5003763;28;20037;-72
2022/12/17 23:25:10;;;;;;;41.90;23.58;;;;;;;;;;5006558;28;20038;-72
2022/12/17 23:27:36;;;;;;;39.05;23.92;;;;;;;;;;4999820;28;20046;-73
2022/12/17 23:30:02;;;;;;;34.70;20.00;;;;;;;;;;5005142;28;20058;-72
2022/12/17 23:32:28;;;;;;;34.05;19.85;;;;;;;;;;5002832;28;20465;-72
2022/12/17 23:34:54;;;;;;;33.63;18.80;;;;;;;;;;4998496;28;20045;-73
2022/12/17 23:37:20;;;;;;;31.42;16.88;;;;;;;;;;5001447;28;20053;-73
2022/12/17 23:39:46;;;;;;;38.97;21.85;;;;;;;;;;5006016;28;20087;-72
2022/12/17 23:42:12;;;;;;;35.55;21.45;;;;;;;;;;4995676;28;20768;-73
2022/12/17 23:44:38;;;;;;;35.83;21.85;;;;;;;;;;5004347;28;20077;-72
2022/12/17 23:47:04;;;;;;;36.22;21.92;;;;;;;;;;4999005;28;20469;-73
2022/12/17 23:49:30;;;;;;;31.70;19.02;;;;;;;;;;5009057;28;20042;-73
2022/12/17 23:51:56;;;;;;;37.17;23.13;;;;;;;;;;5000318;28;20500;-73
2022/12/17 23:54:22;;;;;;;37.30;22.83;;;;;;;;;;5003785;28;20121;-72
2022/12/17 23:56:47;;;;;;;31.13;19.15;;;;;;;;;;4999417;28;20461;-72
2022/12/17 23:59:13;;;;;;;34.22;19.38;;;;;;;;;;5000170;28;20034;-72
